sensor_id;sensor_type;location;lat;lon;timestamp;P1;durP1;ratioP1;P2;durP2;ratioP2
52962;SDS011;38827;53.024;6.596;2023-04-19T00:01:48;10.07;;;6.82;;
52962;SDS011;38827;53.024;6.596;2023-04-19T00:04:14;11.65;;;7.18;;
52962;SDS011;38827;53.024;6.596;2023-04-19T00:06:39;12.25;;;7.50;;
52962;SDS011;38827;53.024;6.596;2023-04-19T00:09:06;9.77;;;7.23;;
52962;SDS011;38827;53.024;6.596;2023-04-19T00:11:32;8.77;;;7.43;;
52962;SDS011;38827;53.024;6.596;2023-04-19T00:13:58;8.65;;;7.03;;
52962;SDS011;38827;53.024;6.596;2023-04-19T00:16:24;9.85;;;7.75;;
52962;SDS011;38827;53.024;6.596;2023-04-19T00:18:49;10.18;;;7.10;;
52962;SDS011;38827;53.024;6.596;2023-04-19T00:21:15;11.98;;;7.38;;
52962;SDS011;38827;53.024;6.596;2023-04-19T00:23:41;10.05;;;7.22;;
52962;SDS011;38827;53.024;6.596;2023-04-19T00:26:06;10.40;;;7.45;;
52962;SDS011;38827;53.024;6.596;2023-04-19T00:28:32;12.25;;;7.78;;
52962;SDS011;38827;53.024;6.596;2023-04-19T00:30:59;13.15;;;7.28;;
52962;SDS011;38827;53.024;6.596;2023-04-19T00:33:24;9.68;;;7.63;;
52962;SDS011;38827;53.024;6.596;2023-04-19T00:35:50;10.25;;;7.25;;
52962;SDS011;38827;53.024;6.596;2023-04-19T00:38:16;9.52;;;7.30;;
52962;SDS011;38827;53.024;6.596;2023-04-19T00:40:41;10.23;;;7.65;;
52962;SDS011;38827;53.024;6.596;2023-04-19T00:43:07;10.02;;;7.53;;
52962;SDS011;38827;53.024;6.596;2023-04-19T00:45:33;9.43;;;7.43;;
52962;SDS011;38827;53.024;6.596;2023-04-19T00:47:59;10.82;;;7.88;;
52962;SDS011;38827;53.024;6.596;2023-04-19T00:50:25;12.57;;;7.82;;
52962;SDS011;38827;53.024;6.596;2023-04-19T00:52:51;11.40;;;7.72;;
52962;SDS011;38827;53.024;6.596;2023-04-19T00:55:22;13.15;;;8.10;;
52962;SDS011;38827;53.024;6.596;2023-04-19T00:57:48;12.30;;;8.20;;
52962;SDS011;38827;53.024;6.596;2023-04-19T01:02:41;11.40;;;7.97;;
52962;SDS011;38827;53.024;6.596;2023-04-19T01:05:10;11.15;;;7.72;;
52962;SDS011;38827;53.024;6.596;2023-04-19T01:07:36;10.93;;;7.40;;
52962;SDS011;38827;53.024;6.596;2023-04-19T01:10:02;10.52;;;8.40;;
52962;SDS011;38827;53.024;6.596;2023-04-19T01:12:28;10.05;;;7.30;;
52962;SDS011;38827;53.024;6.596;2023-04-19T01:14:54;14.35;;;8.25;;
52962;SDS011;38827;53.024;6.596;2023-04-19T01:17:22;11.80;;;8.35;;
52962;SDS011;38827;53.024;6.596;2023-04-19T01:19:57;11.02;;;8.55;;
52962;SDS011;38827;53.024;6.596;2023-04-19T01:22:23;13.75;;;8.93;;
52962;SDS011;38827;53.024;6.596;2023-04-19T01:24:49;13.25;;;8.60;;
52962;SDS011;38827;53.024;6.596;2023-04-19T01:27:15;12.88;;;8.57;;
52962;SDS011;38827;53.024;6.596;2023-04-19T01:29:41;12.55;;;8.65;;
52962;SDS011;38827;53.024;6.596;2023-04-19T01:32:07;13.50;;;9.40;;
52962;SDS011;38827;53.024;6.596;2023-04-19T01:34:33;16.83;;;9.90;;
52962;SDS011;38827;53.024;6.596;2023-04-19T01:36:59;14.73;;;9.20;;
52962;SDS011;38827;53.024;6.596;2023-04-19T01:39:25;13.05;;;9.77;;
52962;SDS011;38827;53.024;6.596;2023-04-19T01:41:51;14.73;;;9.37;;
52962;SDS011;38827;53.024;6.596;2023-04-19T01:44:17;12.73;;;9.32;;
52962;SDS011;38827;53.024;6.596;2023-04-19T01:46:42;15.05;;;9.60;;
52962;SDS011;38827;53.024;6.596;2023-04-19T01:49:08;13.85;;;9.85;;
52962;SDS011;38827;53.024;6.596;2023-04-19T01:51:36;17.92;;;9.65;;
52962;SDS011;38827;53.024;6.596;2023-04-19T01:56:28;17.63;;;10.33;;
52962;SDS011;38827;53.024;6.596;2023-04-19T01:58:57;18.25;;;10.63;;
52962;SDS011;38827;53.024;6.596;2023-04-19T02:01:23;16.67;;;11.20;;
52962;SDS011;38827;53.024;6.596;2023-04-19T02:03:49;15.50;;;11.00;;
52962;SDS011;38827;53.024;6.596;2023-04-19T02:06:15;16.98;;;11.93;;
52962;SDS011;38827;53.024;6.596;2023-04-19T02:08:41;17.42;;;11.40;;
52962;SDS011;38827;53.024;6.596;2023-04-19T02:11:07;18.27;;;11.95;;
52962;SDS011;38827;53.024;6.596;2023-04-19T02:13:33;17.38;;;11.65;;
52962;SDS011;38827;53.024;6.596;2023-04-19T02:15:59;17.08;;;10.68;;
52962;SDS011;38827;53.024;6.596;2023-04-19T02:18:26;14.88;;;11.23;;
52962;SDS011;38827;53.024;6.596;2023-04-19T02:20:54;17.55;;;11.63;;
52962;SDS011;38827;53.024;6.596;2023-04-19T02:23:20;16.07;;;10.87;;
52962;SDS011;38827;53.024;6.596;2023-04-19T02:25:47;16.42;;;10.80;;
52962;SDS011;38827;53.024;6.596;2023-04-19T02:28:13;15.93;;;11.18;;
52962;SDS011;38827;53.024;6.596;2023-04-19T02:30:38;15.75;;;11.20;;
52962;SDS011;38827;53.024;6.596;2023-04-19T02:33:05;16.15;;;10.38;;
52962;SDS011;38827;53.024;6.596;2023-04-19T02:35:31;16.20;;;11.02;;
52962;SDS011;38827;53.024;6.596;2023-04-19T02:37:58;15.77;;;10.95;;
52962;SDS011;38827;53.024;6.596;2023-04-19T02:40:25;16.67;;;10.80;;
52962;SDS011;38827;53.024;6.596;2023-04-19T02:42:51;13.95;;;10.30;;
52962;SDS011;38827;53.024;6.596;2023-04-19T02:45:17;15.95;;;10.88;;
52962;SDS011;38827;53.024;6.596;2023-04-19T02:47:42;16.00;;;10.43;;
52962;SDS011;38827;53.024;6.596;2023-04-19T02:50:10;15.65;;;10.65;;
52962;SDS011;38827;53.024;6.596;2023-04-19T02:52:36;14.15;;;9.75;;
52962;SDS011;38827;53.024;6.596;2023-04-19T02:55:02;13.40;;;10.00;;
52962;SDS011;38827;53.024;6.596;2023-04-19T02:57:28;14.82;;;9.82;;
52962;SDS011;38827;53.024;6.596;2023-04-19T02:59:54;14.45;;;9.38;;
52962;SDS011;38827;53.024;6.596;2023-04-19T03:02:20;16.48;;;9.32;;
52962;SDS011;38827;53.024;6.596;2023-04-19T03:04:46;13.90;;;9.32;;
52962;SDS011;38827;53.024;6.596;2023-04-19T03:07:12;13.90;;;9.10;;
52962;SDS011;38827;53.024;6.596;2023-04-19T03:09:38;14.90;;;9.23;;
52962;SDS011;38827;53.024;6.596;2023-04-19T03:12:05;13.75;;;8.55;;
52962;SDS011;38827;53.024;6.596;2023-04-19T03:14:31;16.70;;;9.38;;
52962;SDS011;38827;53.024;6.596;2023-04-19T03:17:00;13.68;;;8.32;;
52962;SDS011;38827;53.024;6.596;2023-04-19T03:19:26;16.10;;;9.30;;
52962;SDS011;38827;53.024;6.596;2023-04-19T03:21:52;13.27;;;8.98;;
52962;SDS011;38827;53.024;6.596;2023-04-19T03:24:18;12.35;;;8.40;;
52962;SDS011;38827;53.024;6.596;2023-04-19T03:26:44;13.50;;;8.50;;
52962;SDS011;38827;53.024;6.596;2023-04-19T03:29:10;13.15;;;8.48;;
52962;SDS011;38827;53.024;6.596;2023-04-19T03:31:38;9.88;;;8.00;;
52962;SDS011;38827;53.024;6.596;2023-04-19T03:34:03;17.83;;;9.32;;
52962;SDS011;38827;53.024;6.596;2023-04-19T03:36:29;12.65;;;7.65;;
52962;SDS011;38827;53.024;6.596;2023-04-19T03:38:55;14.88;;;8.18;;
52962;SDS011;38827;53.024;6.596;2023-04-19T03:41:22;12.73;;;9.05;;
52962;SDS011;38827;53.024;6.596;2023-04-19T03:43:52;12.73;;;8.50;;
52962;SDS011;38827;53.024;6.596;2023-04-19T03:46:20;12.18;;;8.52;;
52962;SDS011;38827;53.024;6.596;2023-04-19T03:48:46;13.02;;;8.45;;
52962;SDS011;38827;53.024;6.596;2023-04-19T03:51:12;10.85;;;7.90;;
52962;SDS011;38827;53.024;6.596;2023-04-19T03:53:39;12.10;;;7.95;;
52962;SDS011;38827;53.024;6.596;2023-04-19T03:56:05;12.00;;;8.27;;
52962;SDS011;38827;53.024;6.596;2023-04-19T03:58:31;18.20;;;8.77;;
52962;SDS011;38827;53.024;6.596;2023-04-19T04:01:06;14.07;;;7.70;;
52962;SDS011;38827;53.024;6.596;2023-04-19T04:03:33;12.15;;;7.63;;
52962;SDS011;38827;53.024;6.596;2023-04-19T04:05:59;13.55;;;7.97;;
52962;SDS011;38827;53.024;6.596;2023-04-19T04:08:24;11.55;;;7.43;;
52962;SDS011;38827;53.024;6.596;2023-04-19T04:10:50;10.75;;;7.38;;
52962;SDS011;38827;53.024;6.596;2023-04-19T04:13:16;13.13;;;8.10;;
52962;SDS011;38827;53.024;6.596;2023-04-19T04:15:42;12.68;;;7.55;;
52962;SDS011;38827;53.024;6.596;2023-04-19T04:18:07;10.60;;;7.25;;
52962;SDS011;38827;53.024;6.596;2023-04-19T04:20:33;12.23;;;7.78;;
52962;SDS011;38827;53.024;6.596;2023-04-19T04:22:59;9.48;;;7.32;;
52962;SDS011;38827;53.024;6.596;2023-04-19T04:25:24;10.18;;;7.28;;
52962;SDS011;38827;53.024;6.596;2023-04-19T04:27:53;9.45;;;7.07;;
52962;SDS011;38827;53.024;6.596;2023-04-19T04:30:19;12.43;;;7.05;;
52962;SDS011;38827;53.024;6.596;2023-04-19T04:32:44;11.32;;;7.18;;
52962;SDS011;38827;53.024;6.596;2023-04-19T04:35:11;10.75;;;6.80;;
52962;SDS011;38827;53.024;6.596;2023-04-19T04:37:37;10.68;;;6.68;;
52962;SDS011;38827;53.024;6.596;2023-04-19T04:40:02;8.18;;;6.57;;
52962;SDS011;38827;53.024;6.596;2023-04-19T04:42:32;11.52;;;6.97;;
52962;SDS011;38827;53.024;6.596;2023-04-19T04:44:58;13.48;;;6.90;;
52962;SDS011;38827;53.024;6.596;2023-04-19T04:47:33;8.85;;;6.38;;
52962;SDS011;38827;53.024;6.596;2023-04-19T04:49:59;8.95;;;6.20;;
52962;SDS011;38827;53.024;6.596;2023-04-19T04:52:25;9.18;;;6.18;;
52962;SDS011;38827;53.024;6.596;2023-04-19T04:54:50;11.02;;;6.68;;
52962;SDS011;38827;53.024;6.596;2023-04-19T04:57:16;9.73;;;6.40;;
52962;SDS011;38827;53.024;6.596;2023-04-19T04:59:42;8.00;;;6.22;;
52962;SDS011;38827;53.024;6.596;2023-04-19T05:02:07;10.60;;;6.85;;
52962;SDS011;38827;53.024;6.596;2023-04-19T05:04:42;10.70;;;6.95;;
52962;SDS011;38827;53.024;6.596;2023-04-19T05:07:07;12.00;;;6.63;;
52962;SDS011;38827;53.024;6.596;2023-04-19T05:09:33;12.70;;;6.22;;
52962;SDS011;38827;53.024;6.596;2023-04-19T05:11:59;10.25;;;5.97;;
52962;SDS011;38827;53.024;6.596;2023-04-19T05:14:25;9.02;;;6.45;;
52962;SDS011;38827;53.024;6.596;2023-04-19T05:16:51;9.52;;;6.70;;
52962;SDS011;38827;53.024;6.596;2023-04-19T05:19:17;14.25;;;6.82;;
52962;SDS011;38827;53.024;6.596;2023-04-19T05:21:42;9.38;;;6.32;;
52962;SDS011;38827;53.024;6.596;2023-04-19T05:24:08;9.30;;;5.63;;
52962;SDS011;38827;53.024;6.596;2023-04-19T05:26:34;9.77;;;5.82;;
52962;SDS011;38827;53.024;6.596;2023-04-19T05:28:59;7.60;;;5.32;;
52962;SDS011;38827;53.024;6.596;2023-04-19T05:31:25;7.47;;;5.70;;
52962;SDS011;38827;53.024;6.596;2023-04-19T05:33:51;9.40;;;5.55;;
52962;SDS011;38827;53.024;6.596;2023-04-19T05:36:17;10.50;;;6.00;;
52962;SDS011;38827;53.024;6.596;2023-04-19T05:38:42;8.07;;;5.75;;
52962;SDS011;38827;53.024;6.596;2023-04-19T05:41:09;10.75;;;5.90;;
52962;SDS011;38827;53.024;6.596;2023-04-19T05:46:01;6.60;;;5.17;;
52962;SDS011;38827;53.024;6.596;2023-04-19T05:48:27;9.73;;;5.40;;
52962;SDS011;38827;53.024;6.596;2023-04-19T05:50:52;7.80;;;5.53;;
52962;SDS011;38827;53.024;6.596;2023-04-19T05:53:23;10.15;;;5.30;;
52962;SDS011;38827;53.024;6.596;2023-04-19T05:55:49;6.45;;;4.68;;
52962;SDS011;38827;53.024;6.596;2023-04-19T05:58:16;8.57;;;5.05;;
52962;SDS011;38827;53.024;6.596;2023-04-19T06:00:42;7.17;;;4.80;;
52962;SDS011;38827;53.024;6.596;2023-04-19T06:03:09;7.43;;;4.88;;
52962;SDS011;38827;53.024;6.596;2023-04-19T06:05:36;6.57;;;4.70;;
52962;SDS011;38827;53.024;6.596;2023-04-19T06:08:02;5.75;;;4.65;;
52962;SDS011;38827;53.024;6.596;2023-04-19T06:10:29;13.13;;;5.38;;
52962;SDS011;38827;53.024;6.596;2023-04-19T06:12:54;6.60;;;4.55;;
52962;SDS011;38827;53.024;6.596;2023-04-19T06:15:20;6.72;;;4.85;;
52962;SDS011;38827;53.024;6.596;2023-04-19T06:17:46;5.85;;;4.45;;
52962;SDS011;38827;53.024;6.596;2023-04-19T06:20:15;6.63;;;4.85;;
52962;SDS011;38827;53.024;6.596;2023-04-19T06:22:41;7.30;;;4.63;;
52962;SDS011;38827;53.024;6.596;2023-04-19T06:25:09;5.78;;;4.25;;
52962;SDS011;38827;53.024;6.596;2023-04-19T06:27:34;8.02;;;4.85;;
52962;SDS011;38827;53.024;6.596;2023-04-19T06:30:01;6.63;;;4.30;;
52962;SDS011;38827;53.024;6.596;2023-04-19T06:32:27;6.88;;;4.53;;
52962;SDS011;38827;53.024;6.596;2023-04-19T06:34:52;9.40;;;4.70;;
52962;SDS011;38827;53.024;6.596;2023-04-19T06:37:18;8.45;;;4.35;;
52962;SDS011;38827;53.024;6.596;2023-04-19T06:39:44;12.25;;;4.88;;
52962;SDS011;38827;53.024;6.596;2023-04-19T06:42:10;8.43;;;3.95;;
52962;SDS011;38827;53.024;6.596;2023-04-19T06:44:37;7.10;;;4.00;;
52962;SDS011;38827;53.024;6.596;2023-04-19T06:47:02;6.82;;;3.90;;
52962;SDS011;38827;53.024;6.596;2023-04-19T06:49:28;6.18;;;3.80;;
52962;SDS011;38827;53.024;6.596;2023-04-19T06:51:54;4.55;;;3.45;;
52962;SDS011;38827;53.024;6.596;2023-04-19T06:54:19;7.18;;;3.83;;
52962;SDS011;38827;53.024;6.596;2023-04-19T06:56:47;5.40;;;3.73;;
52962;SDS011;38827;53.024;6.596;2023-04-19T06:59:18;6.80;;;4.00;;
52962;SDS011;38827;53.024;6.596;2023-04-19T07:01:46;7.13;;;3.72;;
52962;SDS011;38827;53.024;6.596;2023-04-19T07:04:12;6.20;;;3.83;;
52962;SDS011;38827;53.024;6.596;2023-04-19T07:06:41;6.45;;;3.63;;
52962;SDS011;38827;53.024;6.596;2023-04-19T07:09:10;13.38;;;3.92;;
52962;SDS011;38827;53.024;6.596;2023-04-19T07:14:05;6.13;;;3.50;;
52962;SDS011;38827;53.024;6.596;2023-04-19T07:16:31;6.95;;;3.33;;
52962;SDS011;38827;53.024;6.596;2023-04-19T07:18:59;3.63;;;2.97;;
52962;SDS011;38827;53.024;6.596;2023-04-19T07:21:25;6.10;;;3.38;;
52962;SDS011;38827;53.024;6.596;2023-04-19T07:23:52;4.95;;;3.00;;
52962;SDS011;38827;53.024;6.596;2023-04-19T07:26:18;3.53;;;2.75;;
52962;SDS011;38827;53.024;6.596;2023-04-19T07:28:44;5.13;;;2.88;;
52962;SDS011;38827;53.024;6.596;2023-04-19T07:31:13;7.72;;;3.20;;
52962;SDS011;38827;53.024;6.596;2023-04-19T07:33:41;4.80;;;3.00;;
52962;SDS011;38827;53.024;6.596;2023-04-19T07:36:10;5.35;;;2.80;;
52962;SDS011;38827;53.024;6.596;2023-04-19T07:41:54;4.85;;;3.17;;
52962;SDS011;38827;53.024;6.596;2023-04-19T07:44:26;7.50;;;2.67;;
52962;SDS011;38827;53.024;6.596;2023-04-19T07:46:52;4.00;;;2.95;;
52962;SDS011;38827;53.024;6.596;2023-04-19T07:49:18;4.30;;;2.38;;
52962;SDS011;38827;53.024;6.596;2023-04-19T07:51:46;3.78;;;2.70;;
52962;SDS011;38827;53.024;6.596;2023-04-19T07:54:15;3.17;;;2.80;;
52962;SDS011;38827;53.024;6.596;2023-04-19T07:56:41;5.70;;;3.00;;
52962;SDS011;38827;53.024;6.596;2023-04-19T07:59:16;3.88;;;2.45;;
52962;SDS011;38827;53.024;6.596;2023-04-19T08:02:00;5.05;;;2.80;;
52962;SDS011;38827;53.024;6.596;2023-04-19T08:04:26;4.25;;;2.35;;
52962;SDS011;38827;53.024;6.596;2023-04-19T08:06:51;3.97;;;2.55;;
52962;SDS011;38827;53.024;6.596;2023-04-19T08:09:17;3.63;;;2.80;;
52962;SDS011;38827;53.024;6.596;2023-04-19T08:11:45;4.50;;;2.78;;
52962;SDS011;38827;53.024;6.596;2023-04-19T08:14:12;5.00;;;3.00;;
52962;SDS011;38827;53.024;6.596;2023-04-19T08:16:37;5.95;;;2.50;;
52962;SDS011;38827;53.024;6.596;2023-04-19T08:19:06;4.30;;;2.20;;
52962;SDS011;38827;53.024;6.596;2023-04-19T08:21:32;4.60;;;2.33;;
52962;SDS011;38827;53.024;6.596;2023-04-19T08:23:58;4.75;;;2.20;;
52962;SDS011;38827;53.024;6.596;2023-04-19T08:26:24;4.75;;;2.30;;
52962;SDS011;38827;53.024;6.596;2023-04-19T08:28:52;9.60;;;2.55;;
52962;SDS011;38827;53.024;6.596;2023-04-19T08:31:18;6.45;;;2.50;;
52962;SDS011;38827;53.024;6.596;2023-04-19T08:33:45;5.97;;;2.20;;
52962;SDS011;38827;53.024;6.596;2023-04-19T08:36:11;7.60;;;2.20;;
52962;SDS011;38827;53.024;6.596;2023-04-19T08:38:37;2.85;;;2.15;;
52962;SDS011;38827;53.024;6.596;2023-04-19T08:41:03;2.30;;;1.80;;
52962;SDS011;38827;53.024;6.596;2023-04-19T08:43:29;5.50;;;2.30;;
52962;SDS011;38827;53.024;6.596;2023-04-19T08:45:57;2.33;;;1.90;;
52962;SDS011;38827;53.024;6.596;2023-04-19T08:48:23;3.33;;;1.60;;
52962;SDS011;38827;53.024;6.596;2023-04-19T08:50:51;4.95;;;1.83;;
52962;SDS011;38827;53.024;6.596;2023-04-19T08:53:18;2.42;;;1.60;;
52962;SDS011;38827;53.024;6.596;2023-04-19T08:55:46;3.78;;;1.88;;
52962;SDS011;38827;53.024;6.596;2023-04-19T08:58:13;4.03;;;1.60;;
52962;SDS011;38827;53.024;6.596;2023-04-19T09:00:39;2.10;;;1.43;;
52962;SDS011;38827;53.024;6.596;2023-04-19T09:03:06;3.90;;;1.77;;
52962;SDS011;38827;53.024;6.596;2023-04-19T09:05:35;5.43;;;1.83;;
52962;SDS011;38827;53.024;6.596;2023-04-19T09:08:20;2.73;;;1.60;;
52962;SDS011;38827;53.024;6.596;2023-04-19T09:10:56;2.35;;;1.30;;
52962;SDS011;38827;53.024;6.596;2023-04-19T09:13:23;3.45;;;1.50;;
52962;SDS011;38827;53.024;6.596;2023-04-19T09:15:50;1.92;;;1.65;;
52962;SDS011;38827;53.024;6.596;2023-04-19T09:18:17;6.00;;;1.85;;
52962;SDS011;38827;53.024;6.596;2023-04-19T09:20:43;3.67;;;1.73;;
52962;SDS011;38827;53.024;6.596;2023-04-19T09:23:11;2.40;;;1.48;;
52962;SDS011;38827;53.024;6.596;2023-04-19T09:28:28;1.92;;;1.40;;
52962;SDS011;38827;53.024;6.596;2023-04-19T09:30:55;4.90;;;1.40;;
52962;SDS011;38827;53.024;6.596;2023-04-19T09:33:34;1.75;;;1.45;;
52962;SDS011;38827;53.024;6.596;2023-04-19T09:36:04;3.55;;;1.48;;
52962;SDS011;38827;53.024;6.596;2023-04-19T09:38:46;3.63;;;1.40;;
52962;SDS011;38827;53.024;6.596;2023-04-19T09:41:14;5.45;;;1.58;;
52962;SDS011;38827;53.024;6.596;2023-04-19T09:43:41;2.17;;;1.48;;
52962;SDS011;38827;53.024;6.596;2023-04-19T09:46:07;3.63;;;1.45;;
52962;SDS011;38827;53.024;6.596;2023-04-19T09:48:36;1.67;;;1.40;;
52962;SDS011;38827;53.024;6.596;2023-04-19T09:51:04;4.70;;;1.38;;
52962;SDS011;38827;53.024;6.596;2023-04-19T09:53:33;3.40;;;1.42;;
52962;SDS011;38827;53.024;6.596;2023-04-19T09:56:01;2.72;;;1.30;;
52962;SDS011;38827;53.024;6.596;2023-04-19T09:58:33;1.48;;;1.20;;
52962;SDS011;38827;53.024;6.596;2023-04-19T10:01:09;2.13;;;1.30;;
52962;SDS011;38827;53.024;6.596;2023-04-19T10:03:36;2.28;;;1.30;;
52962;SDS011;38827;53.024;6.596;2023-04-19T10:06:05;1.92;;;1.20;;
52962;SDS011;38827;53.024;6.596;2023-04-19T10:08:37;3.38;;;1.10;;
52962;SDS011;38827;53.024;6.596;2023-04-19T10:11:05;3.63;;;1.10;;
52962;SDS011;38827;53.024;6.596;2023-04-19T10:13:38;2.58;;;1.30;;
52962;SDS011;38827;53.024;6.596;2023-04-19T10:16:07;1.67;;;1.10;;
52962;SDS011;38827;53.024;6.596;2023-04-19T10:18:47;4.30;;;1.25;;
52962;SDS011;38827;53.024;6.596;2023-04-19T10:21:16;4.45;;;1.30;;
52962;SDS011;38827;53.024;6.596;2023-04-19T10:23:48;1.58;;;1.20;;
52962;SDS011;38827;53.024;6.596;2023-04-19T10:26:20;1.92;;;0.95;;
52962;SDS011;38827;53.024;6.596;2023-04-19T10:28:48;4.35;;;1.00;;
52962;SDS011;38827;53.024;6.596;2023-04-19T10:31:25;1.17;;;0.90;;
52962;SDS011;38827;53.024;6.596;2023-04-19T10:33:51;4.23;;;1.10;;
52962;SDS011;38827;53.024;6.596;2023-04-19T10:36:20;2.78;;;1.10;;
52962;SDS011;38827;53.024;6.596;2023-04-19T10:38:56;5.07;;;1.58;;
52962;SDS011;38827;53.024;6.596;2023-04-19T10:41:22;3.67;;;1.00;;
52962;SDS011;38827;53.024;6.596;2023-04-19T10:44:12;1.95;;;1.30;;
52962;SDS011;38827;53.024;6.596;2023-04-19T10:46:45;1.88;;;1.30;;
52962;SDS011;38827;53.024;6.596;2023-04-19T10:49:33;2.72;;;1.17;;
52962;SDS011;38827;53.024;6.596;2023-04-19T10:52:29;4.07;;;1.10;;
52962;SDS011;38827;53.024;6.596;2023-04-19T10:54:58;2.13;;;1.10;;
52962;SDS011;38827;53.024;6.596;2023-04-19T10:57:59;2.47;;;1.15;;
52962;SDS011;38827;53.024;6.596;2023-04-19T11:04:01;3.08;;;0.93;;
52962;SDS011;38827;53.024;6.596;2023-04-19T11:06:29;1.50;;;0.80;;
52962;SDS011;38827;53.024;6.596;2023-04-19T11:09:02;3.20;;;1.00;;
52962;SDS011;38827;53.024;6.596;2023-04-19T11:11:33;0.93;;;0.68;;
52962;SDS011;38827;53.024;6.596;2023-04-19T11:14:02;6.43;;;1.20;;
52962;SDS011;38827;53.024;6.596;2023-04-19T11:16:40;2.72;;;1.20;;
52962;SDS011;38827;53.024;6.596;2023-04-19T11:19:15;2.63;;;1.10;;
52962;SDS011;38827;53.024;6.596;2023-04-19T11:21:56;2.90;;;0.95;;
52962;SDS011;38827;53.024;6.596;2023-04-19T11:24:26;2.67;;;1.10;;
52962;SDS011;38827;53.024;6.596;2023-04-19T11:26:59;3.57;;;1.10;;
52962;SDS011;38827;53.024;6.596;2023-04-19T11:29:33;2.25;;;0.98;;
52962;SDS011;38827;53.024;6.596;2023-04-19T11:32:15;3.35;;;1.08;;
52962;SDS011;38827;53.024;6.596;2023-04-19T11:35:07;2.88;;;1.00;;
52962;SDS011;38827;53.024;6.596;2023-04-19T11:37:34;1.38;;;1.02;;
52962;SDS011;38827;53.024;6.596;2023-04-19T11:44:51;2.63;;;1.40;;
52962;SDS011;38827;53.024;6.596;2023-04-19T11:47:18;2.75;;;1.20;;
52962;SDS011;38827;53.024;6.596;2023-04-19T11:49:44;3.85;;;1.20;;
52962;SDS011;38827;53.024;6.596;2023-04-19T11:52:10;2.50;;;1.40;;
52962;SDS011;38827;53.024;6.596;2023-04-19T11:54:36;4.20;;;1.35;;
52962;SDS011;38827;53.024;6.596;2023-04-19T11:57:06;1.75;;;1.27;;
52962;SDS011;38827;53.024;6.596;2023-04-19T11:59:33;3.42;;;1.88;;
52962;SDS011;38827;53.024;6.596;2023-04-19T12:02:03;3.58;;;1.85;;
52962;SDS011;38827;53.024;6.596;2023-04-19T12:04:30;2.35;;;1.48;;
52962;SDS011;38827;53.024;6.596;2023-04-19T12:06:57;2.00;;;1.67;;
52962;SDS011;38827;53.024;6.596;2023-04-19T12:09:26;5.57;;;1.83;;
52962;SDS011;38827;53.024;6.596;2023-04-19T12:11:52;2.63;;;1.57;;
52962;SDS011;38827;53.024;6.596;2023-04-19T12:14:19;1.80;;;1.60;;
52962;SDS011;38827;53.024;6.596;2023-04-19T12:17:07;7.65;;;2.17;;
52962;SDS011;38827;53.024;6.596;2023-04-19T12:19:36;5.00;;;1.88;;
52962;SDS011;38827;53.024;6.596;2023-04-19T12:22:15;3.10;;;1.90;;
52962;SDS011;38827;53.024;6.596;2023-04-19T12:24:43;3.15;;;1.77;;
52962;SDS011;38827;53.024;6.596;2023-04-19T12:27:09;4.55;;;2.20;;
52962;SDS011;38827;53.024;6.596;2023-04-19T12:29:36;1.98;;;1.73;;
52962;SDS011;38827;53.024;6.596;2023-04-19T12:32:02;2.80;;;1.90;;
52962;SDS011;38827;53.024;6.596;2023-04-19T12:34:28;2.28;;;1.90;;
52962;SDS011;38827;53.024;6.596;2023-04-19T12:36:54;3.47;;;1.90;;
52962;SDS011;38827;53.024;6.596;2023-04-19T12:39:20;3.10;;;1.95;;
52962;SDS011;38827;53.024;6.596;2023-04-19T12:41:46;4.00;;;2.08;;
52962;SDS011;38827;53.024;6.596;2023-04-19T12:44:13;4.47;;;2.10;;
52962;SDS011;38827;53.024;6.596;2023-04-19T12:46:39;2.80;;;2.10;;
52962;SDS011;38827;53.024;6.596;2023-04-19T12:49:05;10.48;;;2.55;;
52962;SDS011;38827;53.024;6.596;2023-04-19T12:51:31;3.23;;;1.80;;
52962;SDS011;38827;53.024;6.596;2023-04-19T12:53:57;4.30;;;2.00;;
52962;SDS011;38827;53.024;6.596;2023-04-19T12:58:57;3.55;;;1.50;;
52962;SDS011;38827;53.024;6.596;2023-04-19T13:01:26;4.72;;;1.80;;
52962;SDS011;38827;53.024;6.596;2023-04-19T13:03:51;3.97;;;2.00;;
52962;SDS011;38827;53.024;6.596;2023-04-19T13:06:17;2.20;;;2.00;;
52962;SDS011;38827;53.024;6.596;2023-04-19T13:08:43;3.63;;;1.83;;
52962;SDS011;38827;53.024;6.596;2023-04-19T13:11:08;4.03;;;1.90;;
52962;SDS011;38827;53.024;6.596;2023-04-19T13:13:34;3.27;;;1.60;;
52962;SDS011;38827;53.024;6.596;2023-04-19T13:16:00;4.87;;;1.80;;
52962;SDS011;38827;53.024;6.596;2023-04-19T13:18:25;3.03;;;1.40;;
52962;SDS011;38827;53.024;6.596;2023-04-19T13:20:51;3.13;;;1.60;;
52962;SDS011;38827;53.024;6.596;2023-04-19T13:23:18;2.28;;;2.00;;
52962;SDS011;38827;53.024;6.596;2023-04-19T13:25:43;3.30;;;1.80;;
52962;SDS011;38827;53.024;6.596;2023-04-19T13:28:09;2.22;;;1.60;;
52962;SDS011;38827;53.024;6.596;2023-04-19T13:30:35;2.67;;;1.70;;
52962;SDS011;38827;53.024;6.596;2023-04-19T13:33:00;12.30;;;3.00;;
52962;SDS011;38827;53.024;6.596;2023-04-19T13:35:26;3.23;;;2.10;;
52962;SDS011;38827;53.024;6.596;2023-04-19T13:37:52;3.10;;;1.97;;
52962;SDS011;38827;53.024;6.596;2023-04-19T13:40:17;4.97;;;2.20;;
52962;SDS011;38827;53.024;6.596;2023-04-19T13:42:43;4.40;;;1.80;;
52962;SDS011;38827;53.024;6.596;2023-04-19T13:45:09;2.53;;;1.67;;
52962;SDS011;38827;53.024;6.596;2023-04-19T13:47:35;3.63;;;2.10;;
52962;SDS011;38827;53.024;6.596;2023-04-19T13:50:00;4.60;;;1.87;;
52962;SDS011;38827;53.024;6.596;2023-04-19T13:52:26;3.73;;;1.90;;
52962;SDS011;38827;53.024;6.596;2023-04-19T13:54:52;3.47;;;1.97;;
52962;SDS011;38827;53.024;6.596;2023-04-19T13:57:17;2.97;;;1.70;;
52962;SDS011;38827;53.024;6.596;2023-04-19T13:59:45;1.70;;;1.52;;
52962;SDS011;38827;53.024;6.596;2023-04-19T14:02:11;2.97;;;1.97;;
52962;SDS011;38827;53.024;6.596;2023-04-19T14:04:37;2.83;;;1.60;;
52962;SDS011;38827;53.024;6.596;2023-04-19T14:07:02;5.00;;;2.30;;
52962;SDS011;38827;53.024;6.596;2023-04-19T14:09:28;3.73;;;2.00;;
52962;SDS011;38827;53.024;6.596;2023-04-19T14:11:54;3.80;;;1.90;;
52962;SDS011;38827;53.024;6.596;2023-04-19T14:14:19;2.97;;;1.77;;
52962;SDS011;38827;53.024;6.596;2023-04-19T14:16:45;5.50;;;2.17;;
52962;SDS011;38827;53.024;6.596;2023-04-19T14:19:11;5.00;;;2.10;;
52962;SDS011;38827;53.024;6.596;2023-04-19T14:21:37;5.53;;;2.07;;
52962;SDS011;38827;53.024;6.596;2023-04-19T14:24:02;2.70;;;1.80;;
52962;SDS011;38827;53.024;6.596;2023-04-19T14:26:28;2.92;;;2.10;;
52962;SDS011;38827;53.024;6.596;2023-04-19T14:28:54;2.70;;;1.80;;
52962;SDS011;38827;53.024;6.596;2023-04-19T14:31:19;4.10;;;2.00;;
52962;SDS011;38827;53.024;6.596;2023-04-19T14:33:45;6.87;;;2.13;;
52962;SDS011;38827;53.024;6.596;2023-04-19T14:36:11;4.70;;;1.87;;
52962;SDS011;38827;53.024;6.596;2023-04-19T14:38:37;4.27;;;1.93;;
52962;SDS011;38827;53.024;6.596;2023-04-19T14:41:03;5.47;;;2.20;;
52962;SDS011;38827;53.024;6.596;2023-04-19T14:43:28;4.03;;;1.93;;
52962;SDS011;38827;53.024;6.596;2023-04-19T14:45:54;4.47;;;2.10;;
52962;SDS011;38827;53.024;6.596;2023-04-19T14:48:20;5.03;;;2.07;;
52962;SDS011;38827;53.024;6.596;2023-04-19T14:50:46;3.83;;;2.33;;
52962;SDS011;38827;53.024;6.596;2023-04-19T14:53:19;3.58;;;2.53;;
52962;SDS011;38827;53.024;6.596;2023-04-19T14:55:47;3.53;;;2.30;;
52962;SDS011;38827;53.024;6.596;2023-04-19T14:58:13;3.77;;;2.30;;
52962;SDS011;38827;53.024;6.596;2023-04-19T15:00:39;5.47;;;2.63;;
52962;SDS011;38827;53.024;6.596;2023-04-19T15:03:05;4.33;;;2.17;;
52962;SDS011;38827;53.024;6.596;2023-04-19T15:05:32;4.00;;;2.50;;
52962;SDS011;38827;53.024;6.596;2023-04-19T15:07:59;4.15;;;2.40;;
52962;SDS011;38827;53.024;6.596;2023-04-19T15:10:24;4.57;;;2.20;;
52962;SDS011;38827;53.024;6.596;2023-04-19T15:12:50;6.77;;;2.40;;